createdAt,value
2018-04-14T00:01:59.381Z,21.17
2018-04-14T00:04:26.929Z,22.20
2018-04-14T00:06:54.431Z,18.10
2018-04-14T00:09:21.939Z,22.97
2018-04-14T00:11:49.463Z,18.13
2018-04-14T00:14:17.012Z,20.77
2018-04-14T00:16:44.528Z,18.97
2018-04-14T00:19:12.081Z,17.23
2018-04-14T00:21:39.717Z,16.77
2018-04-14T00:24:07.286Z,20.67
2018-04-14T00:26:34.841Z,16.53
2018-04-14T00:29:02.411Z,19.23
2018-04-14T00:31:29.920Z,19.67
2018-04-14T00:33:57.476Z,16.83
2018-04-14T00:36:25.044Z,19.00
2018-04-14T00:38:52.551Z,17.60
2018-04-14T00:41:20.065Z,20.40
2018-04-14T00:43:47.585Z,25.83
2018-04-14T00:46:15.142Z,18.80
2018-04-14T00:48:42.670Z,22.03
2018-04-14T00:51:10.232Z,21.73
2018-04-14T00:53:47.729Z,22.17
2018-04-14T00:56:15.231Z,21.73
2018-04-14T00:58:42.775Z,22.47
2018-04-14T01:01:10.279Z,20.60
2018-04-14T01:03:37.786Z,21.47
2018-04-14T01:06:05.299Z,22.53
2018-04-14T01:08:32.807Z,22.10
2018-04-14T01:11:00.318Z,20.40
2018-04-14T01:13:27.867Z,21.43
2018-04-14T01:15:55.370Z,20.30
2018-04-14T01:18:22.883Z,30.57
2018-04-14T01:20:50.395Z,26.33
2018-04-14T01:23:17.938Z,20.80
2018-04-14T01:25:45.444Z,25.43
2018-04-14T01:28:12.948Z,26.23
2018-04-14T01:30:40.515Z,26.93
2018-04-14T01:33:08.023Z,22.97
2018-04-14T01:35:35.532Z,26.93
2018-04-14T01:38:03.037Z,24.07
2018-04-14T01:40:30.583Z,25.00
2018-04-14T01:42:58.093Z,21.63
2018-04-14T01:45:25.616Z,22.67
2018-04-14T01:47:53.159Z,21.60
2018-04-14T01:50:20.681Z,25.27
2018-04-14T01:52:48.245Z,24.13
2018-04-14T01:55:15.769Z,23.17
2018-04-14T01:57:43.277Z,22.80
2018-04-14T02:00:10.828Z,21.43
2018-04-14T02:02:38.333Z,24.43
2018-04-14T02:05:05.883Z,21.53
2018-04-14T02:07:33.411Z,21.37
2018-04-14T02:10:00.958Z,22.83
2018-04-14T02:12:28.475Z,21.60
2018-04-14T02:14:55.996Z,23.73
2018-04-14T02:17:23.504Z,24.27
2018-04-14T02:19:51.057Z,22.43
2018-04-14T02:22:18.566Z,21.07
2018-04-14T02:24:46.111Z,24.03
2018-04-14T02:27:13.670Z,22.40
2018-04-14T02:29:41.184Z,23.17
2018-04-14T02:32:08.693Z,21.90
2018-04-14T02:34:36.217Z,25.40
2018-04-14T02:37:03.780Z,27.10
2018-04-14T02:39:31.328Z,30.00
2018-04-14T02:41:58.846Z,30.13
2018-04-14T02:44:26.397Z,23.07
2018-04-14T02:46:53.937Z,25.30
2018-04-14T02:49:21.454Z,28.93
2018-04-14T02:51:48.972Z,36.57
2018-04-14T02:54:16.516Z,36.67
2018-04-14T02:56:44.020Z,29.00
2018-04-14T02:59:11.527Z,30.90
2018-04-14T03:01:39.082Z,27.43
2018-04-14T03:04:06.589Z,23.30
2018-04-14T03:06:34.100Z,26.57
2018-04-14T03:09:01.644Z,26.00
2018-04-14T03:11:29.152Z,25.60
2018-04-14T03:13:56.700Z,28.90
2018-04-14T03:16:24.208Z,28.70
2018-04-14T03:18:51.763Z,24.23
2018-04-14T03:21:19.267Z,30.47
2018-04-14T03:23:46.815Z,25.50
2018-04-14T03:26:14.315Z,29.57
2018-04-14T03:28:41.824Z,30.27
2018-04-14T03:31:09.363Z,29.27
2018-04-14T03:33:36.884Z,30.83
2018-04-14T03:36:04.400Z,35.93
2018-04-14T03:38:31.912Z,34.40
2018-04-14T03:40:59.472Z,34.17
2018-04-14T03:43:26.983Z,31.63
2018-04-14T03:45:54.482Z,30.23
2018-04-14T03:48:21.995Z,29.67
2018-04-14T03:50:49.495Z,32.10
2018-04-14T03:53:17.003Z,29.07
2018-04-14T03:55:44.510Z,32.03
2018-04-14T03:58:12.027Z,28.53
2018-04-14T04:00:39.575Z,29.90
2018-04-14T04:03:07.095Z,38.13
2018-04-14T04:05:34.608Z,36.13
2018-04-14T04:08:02.119Z,31.50
2018-04-14T04:10:29.627Z,31.83
2018-04-14T04:12:57.131Z,36.17
2018-04-14T04:15:24.643Z,34.93
2018-04-14T04:17:52.197Z,27.97
2018-04-14T04:20:32.331Z,46.40
2018-04-14T04:26:05.030Z,24.97
2018-04-14T04:28:32.539Z,28.47
2018-04-14T04:31:00.095Z,28.37
2018-04-14T04:33:27.599Z,33.30
2018-04-14T04:35:55.117Z,26.47
2018-04-14T04:38:22.650Z,21.60
2018-04-14T04:40:50.159Z,24.17
2018-04-14T04:43:17.672Z,21.73
2018-04-14T04:45:45.171Z,21.50
2018-04-14T04:48:12.728Z,22.97
2018-04-14T04:50:40.248Z,19.00
2018-04-14T04:53:07.763Z,19.50
2018-04-14T04:55:35.315Z,22.37
2018-04-14T04:58:02.879Z,21.30
2018-04-14T05:00:30.435Z,22.03
2018-04-14T05:02:57.947Z,23.70
2018-04-14T05:05:25.462Z,20.50
2018-04-14T05:07:52.958Z,19.90
2018-04-14T05:10:20.520Z,20.33
2018-04-14T05:12:48.022Z,17.53
2018-04-14T05:15:15.537Z,17.90
2018-04-14T05:17:43.043Z,19.63
2018-04-14T05:20:10.560Z,19.80
2018-04-14T05:22:38.116Z,22.17
2018-04-14T05:25:05.629Z,24.77
2018-04-14T05:27:33.197Z,21.97
2018-04-14T05:30:00.740Z,23.90
2018-04-14T05:32:28.489Z,23.13
2018-04-14T05:34:56.048Z,26.33
2018-04-14T05:37:23.602Z,21.53
2018-04-14T05:39:51.168Z,25.63
2018-04-14T05:42:18.678Z,21.63
2018-04-14T05:44:46.196Z,23.67
2018-04-14T05:47:13.707Z,22.40
2018-04-14T05:49:41.279Z,19.93
2018-04-14T05:52:08.841Z,23.87
2018-04-14T05:54:36.352Z,20.80
2018-04-14T05:57:03.908Z,26.10
2018-04-14T05:59:31.467Z,30.07
2018-04-14T06:01:59.016Z,27.40
2018-04-14T06:04:26.521Z,25.17
2018-04-14T06:06:54.102Z,28.40
2018-04-14T06:09:21.655Z,33.93
2018-04-14T06:11:49.163Z,26.47
2018-04-14T06:14:16.707Z,29.73
2018-04-14T06:16:44.233Z,27.63
2018-04-14T06:19:11.776Z,33.03
2018-04-14T06:21:39.280Z,27.70
2018-04-14T06:24:06.824Z,30.33
2018-04-14T06:26:34.328Z,30.57
2018-04-14T06:29:01.843Z,27.93
2018-04-14T06:31:29.360Z,32.13
2018-04-14T06:33:56.868Z,38.57
2018-04-14T06:36:24.391Z,32.03
2018-04-14T06:38:51.948Z,27.60
2018-04-14T06:41:19.483Z,29.47
2018-04-14T06:43:46.996Z,28.77
2018-04-14T06:46:14.568Z,28.60
2018-04-14T06:48:42.075Z,33.93
2018-04-14T06:51:09.597Z,27.70
2018-04-14T06:53:37.149Z,30.23
2018-04-14T06:56:04.684Z,28.87
2018-04-14T06:58:32.227Z,29.53
2018-04-14T07:00:59.743Z,22.30
2018-04-14T07:03:27.256Z,22.47
2018-04-14T07:05:54.769Z,24.27
2018-04-14T07:08:22.328Z,22.67
2018-04-14T07:10:49.860Z,23.45
2018-04-14T07:13:17.403Z,24.75
2018-04-14T07:15:44.922Z,26.52
2018-04-14T07:18:12.481Z,24.80
2018-04-14T07:20:40.045Z,24.58
2018-04-14T07:23:07.528Z,26.40
2018-04-14T07:25:35.075Z,22.70
2018-04-14T07:28:02.628Z,26.73
2018-04-14T07:30:30.166Z,23.65
2018-04-14T07:32:57.671Z,26.42
2018-04-14T07:35:25.219Z,28.10
2018-04-14T07:37:52.729Z,26.05
2018-04-14T07:40:20.348Z,30.20
2018-04-14T07:42:47.855Z,27.37
2018-04-14T07:45:15.364Z,29.17
2018-04-14T07:47:42.887Z,27.92
2018-04-14T07:50:10.438Z,24.80
2018-04-14T07:52:37.983Z,25.50
2018-04-14T07:55:05.492Z,30.73
2018-04-14T07:57:33.001Z,25.70
2018-04-14T08:00:00.524Z,27.23
2018-04-14T08:02:28.027Z,25.08
2018-04-14T08:04:55.542Z,26.17
2018-04-14T08:07:23.047Z,23.00
2018-04-14T08:09:50.553Z,24.27
2018-04-14T08:12:18.115Z,22.77
2018-04-14T08:14:45.635Z,21.62
2018-04-14T08:17:13.191Z,23.08
2018-04-14T08:19:40.698Z,21.75
2018-04-14T08:22:08.277Z,22.83
2018-04-14T08:24:35.795Z,22.55
2018-04-14T08:27:03.305Z,21.20
2018-04-14T08:29:30.811Z,19.98
2018-04-14T08:31:58.384Z,14.25
2018-04-14T08:34:25.899Z,14.50
2018-04-14T08:36:53.412Z,13.40
2018-04-14T08:39:20.936Z,14.75
2018-04-14T08:41:48.454Z,14.05
2018-04-14T08:44:15.969Z,16.25
2018-04-14T08:46:43.518Z,16.23
2018-04-14T08:49:11.066Z,15.32
2018-04-14T08:51:38.576Z,18.77
2018-04-14T08:54:06.089Z,15.18
2018-04-14T08:56:33.675Z,15.77
2018-04-14T08:59:01.236Z,16.70
2018-04-14T09:01:28.795Z,21.12
2018-04-14T09:03:56.307Z,13.35
2018-04-14T09:06:23.863Z,13.88
2018-04-14T09:08:51.408Z,14.32
2018-04-14T09:11:18.909Z,14.60
2018-04-14T09:13:46.488Z,14.95
2018-04-14T09:16:14.016Z,17.65
2018-04-14T09:18:41.528Z,15.82
2018-04-14T09:21:09.044Z,18.87
2018-04-14T09:23:36.557Z,15.60
2018-04-14T09:26:04.080Z,18.98
2018-04-14T09:28:31.635Z,14.90
2018-04-14T09:30:59.183Z,18.37
2018-04-14T09:33:26.727Z,15.70
2018-04-14T09:35:54.236Z,14.80
2018-04-14T09:38:21.884Z,13.93
2018-04-14T09:40:49.432Z,13.90
2018-04-14T09:43:16.935Z,17.58
2018-04-14T09:45:44.493Z,13.52
2018-04-14T09:48:12.035Z,15.55
2018-04-14T09:50:39.544Z,13.50
2018-04-14T09:53:07.109Z,15.02
2018-04-14T09:55:34.679Z,17.98
2018-04-14T09:58:02.243Z,14.68
2018-04-14T10:00:29.804Z,17.87
2018-04-14T10:03:00.228Z,15.88
2018-04-14T10:05:27.786Z,16.83
2018-04-14T10:07:55.295Z,19.65
2018-04-14T10:10:22.876Z,15.35
2018-04-14T10:12:50.382Z,17.67
2018-04-14T10:15:17.975Z,18.62
2018-04-14T10:17:45.480Z,18.65
2018-04-14T10:20:12.992Z,15.70
2018-04-14T10:22:40.503Z,14.15
2018-04-14T10:25:08.048Z,19.02
2018-04-14T10:27:35.586Z,16.73
2018-04-14T10:30:04.655Z,21.92
2018-04-14T10:32:32.163Z,19.98
2018-04-14T10:34:59.702Z,17.45
2018-04-14T10:37:27.247Z,15.68
2018-04-14T10:39:54.871Z,15.90
2018-04-14T10:42:22.425Z,13.60
2018-04-14T10:44:49.948Z,14.15
2018-04-14T10:47:17.505Z,14.43
2018-04-14T10:49:45.019Z,19.17
2018-04-14T10:52:12.547Z,25.73
2018-04-14T10:54:40.069Z,17.30
2018-04-14T10:57:07.574Z,20.73
2018-04-14T10:59:35.140Z,20.27
2018-04-14T11:02:02.683Z,15.40
2018-04-14T11:04:30.215Z,18.92
2018-04-14T11:06:57.752Z,20.37
2018-04-14T11:09:25.307Z,13.80
2018-04-14T11:11:52.836Z,15.95
2018-04-14T11:14:20.343Z,18.27
2018-04-14T11:16:47.858Z,19.02
2018-04-14T11:19:15.368Z,20.42
2018-04-14T11:21:42.936Z,12.82
2018-04-14T11:24:10.482Z,15.13
2018-04-14T11:26:38.006Z,17.35
2018-04-14T11:29:05.559Z,19.75
2018-04-14T11:31:33.074Z,17.83
2018-04-14T11:34:00.589Z,19.73
2018-04-14T11:36:28.160Z,18.95
2018-04-14T11:38:55.675Z,18.45
2018-04-14T11:41:23.179Z,15.00
2018-04-14T11:43:50.692Z,17.02
2018-04-14T11:46:18.246Z,17.95
2018-04-14T11:48:45.767Z,22.48
2018-04-14T11:51:13.317Z,18.52
2018-04-14T11:53:40.818Z,20.55
2018-04-14T11:56:08.363Z,18.20
2018-04-14T11:58:35.898Z,18.87
2018-04-14T12:01:03.440Z,21.60
2018-04-14T12:03:31.084Z,22.02
2018-04-14T12:05:58.605Z,22.10
2018-04-14T12:08:26.167Z,22.13
2018-04-14T12:10:53.679Z,22.00
2018-04-14T12:13:21.188Z,16.45
2018-04-14T12:15:48.752Z,18.55
2018-04-14T12:18:16.317Z,20.55
2018-04-14T12:20:43.823Z,22.62
2018-04-14T12:23:11.327Z,22.40
2018-04-14T12:25:38.877Z,18.02
2018-04-14T12:28:06.783Z,18.45
2018-04-14T12:30:34.332Z,16.37
2018-04-14T12:33:01.858Z,22.20
2018-04-14T12:35:29.358Z,17.77
2018-04-14T12:37:59.388Z,20.88
2018-04-14T12:40:26.918Z,18.85
2018-04-14T12:42:54.467Z,20.60
2018-04-14T12:45:22.035Z,14.90
2018-04-14T12:47:49.539Z,27.90
2018-04-14T12:50:17.176Z,22.65
2018-04-14T12:52:44.742Z,16.77
2018-04-14T12:55:12.255Z,16.30
2018-04-14T12:57:39.811Z,18.85
2018-04-14T13:00:07.355Z,16.10
2018-04-14T13:02:34.859Z,13.38
2018-04-14T13:05:02.415Z,13.50
2018-04-14T13:07:29.934Z,15.32
2018-04-14T13:09:57.475Z,14.85
2018-04-14T13:12:25.025Z,17.05
2018-04-14T13:14:52.672Z,16.02
2018-04-14T13:17:20.197Z,15.38
2018-04-14T13:19:47.755Z,13.37
2018-04-14T13:22:15.299Z,17.80
2018-04-14T13:24:42.828Z,18.30
2018-04-14T13:27:10.383Z,15.50
2018-04-14T13:29:37.917Z,14.50
2018-04-14T13:32:05.472Z,17.57
2018-04-14T13:34:33.024Z,19.67
2018-04-14T13:37:00.535Z,18.93
2018-04-14T13:39:28.064Z,14.80
2018-04-14T13:41:55.612Z,17.57
2018-04-14T13:44:23.188Z,15.93
2018-04-14T13:46:50.714Z,15.33
2018-04-14T13:49:18.216Z,14.00
2018-04-14T13:51:45.756Z,17.23
2018-04-14T13:54:13.255Z,14.23
2018-04-14T13:56:40.799Z,14.17
2018-04-14T13:59:08.323Z,18.10
2018-04-14T14:01:35.906Z,15.77
2018-04-14T14:04:03.411Z,15.17
2018-04-14T14:06:30.977Z,16.87
2018-04-14T14:08:58.486Z,10.67
2018-04-14T14:11:26.032Z,14.47
2018-04-14T14:13:53.536Z,14.07
2018-04-14T14:16:21.046Z,15.07
2018-04-14T14:18:48.611Z,20.50
2018-04-14T14:21:16.189Z,21.43
2018-04-14T14:23:43.690Z,18.87
2018-04-14T14:26:11.203Z,13.97
2018-04-14T14:28:38.752Z,15.43
2018-04-14T14:31:06.302Z,18.30
2018-04-14T14:33:33.871Z,16.37
2018-04-14T14:36:01.421Z,19.43
2018-04-14T14:38:28.942Z,15.30
2018-04-14T14:40:56.452Z,15.17
2018-04-14T14:43:24.015Z,16.97
2018-04-14T14:45:51.575Z,16.03
2018-04-14T14:48:19.089Z,16.17
2018-04-14T14:50:46.595Z,13.63
2018-04-14T14:53:14.147Z,16.10
2018-04-14T14:55:41.708Z,19.33
2018-04-14T14:58:09.226Z,19.67
2018-04-14T15:00:36.739Z,18.57
2018-04-14T15:03:04.297Z,16.43
2018-04-14T15:05:31.799Z,15.00
2018-04-14T15:07:59.312Z,21.03
2018-04-14T15:10:26.859Z,16.00
2018-04-14T15:12:54.362Z,19.30
2018-04-14T15:15:21.876Z,15.80
2018-04-14T15:17:49.396Z,17.93
2018-04-14T15:20:16.944Z,17.60
2018-04-14T15:22:44.461Z,19.27
2018-04-14T15:25:12.059Z,14.83
2018-04-14T15:27:39.581Z,13.80
2018-04-14T15:30:07.127Z,16.53
2018-04-14T15:32:34.631Z,13.20
2018-04-14T15:35:02.154Z,12.17
2018-04-14T15:37:29.710Z,17.77
2018-04-14T15:39:57.222Z,14.37
2018-04-14T15:42:24.797Z,21.87
2018-04-14T15:44:52.304Z,15.07
2018-04-14T15:47:19.977Z,23.07
2018-04-14T15:49:47.519Z,13.80
2018-04-14T15:52:15.032Z,21.07
2018-04-14T15:54:42.548Z,17.47
2018-04-14T15:57:10.051Z,12.93
2018-04-14T15:59:37.566Z,19.00
2018-04-14T16:02:05.111Z,14.43
2018-04-14T16:04:32.659Z,15.13
2018-04-14T16:07:00.223Z,19.13
2018-04-14T16:09:27.727Z,18.07
2018-04-14T16:11:55.243Z,13.90
2018-04-14T16:14:22.789Z,16.00
2018-04-14T16:16:50.303Z,15.93
2018-04-14T16:19:17.908Z,13.53
2018-04-14T16:21:45.449Z,13.47
2018-04-14T16:24:12.987Z,12.00
2018-04-14T16:26:40.539Z,16.63
2018-04-14T16:29:08.051Z,15.10
2018-04-14T16:31:35.605Z,15.27
2018-04-14T16:34:03.120Z,11.77
2018-04-14T16:36:30.638Z,14.67
2018-04-14T16:38:58.175Z,13.50
2018-04-14T16:41:25.693Z,15.43
2018-04-14T16:43:53.250Z,13.10
2018-04-14T16:46:20.864Z,19.23
2018-04-14T16:48:48.423Z,13.80
2018-04-14T16:51:15.932Z,14.17
2018-04-14T16:53:43.436Z,20.20
2018-04-14T16:56:10.994Z,20.33
2018-04-14T16:58:38.539Z,17.43
2018-04-14T17:01:06.136Z,20.13
2018-04-14T17:03:33.699Z,17.67
2018-04-14T17:06:01.239Z,26.53
2018-04-14T17:08:28.752Z,14.40
2018-04-14T17:10:56.270Z,17.80
2018-04-14T17:13:24.662Z,18.80
2018-04-14T17:15:52.203Z,22.43
2018-04-14T17:18:19.751Z,15.70
2018-04-14T17:20:47.271Z,18.87
2018-04-14T17:23:14.783Z,18.40
2018-04-14T17:25:42.337Z,15.57
2018-04-14T17:28:09.880Z,17.50
2018-04-14T17:30:37.418Z,15.53
2018-04-14T17:33:04.940Z,16.87
2018-04-14T17:35:32.483Z,21.87
2018-04-14T17:38:00.026Z,24.47
2018-04-14T17:40:27.592Z,16.07
2018-04-14T17:42:55.139Z,16.40
2018-04-14T17:45:22.638Z,16.17
2018-04-14T17:47:50.196Z,18.90
2018-04-14T17:50:17.712Z,19.67
2018-04-14T17:52:45.225Z,22.20
2018-04-14T17:55:12.736Z,18.33
2018-04-14T17:57:40.244Z,17.27
2018-04-14T18:00:07.796Z,21.87
2018-04-14T18:02:35.344Z,18.03
2018-04-14T18:05:02.883Z,24.47
2018-04-14T18:07:30.388Z,18.47
2018-04-14T18:09:57.942Z,23.57
2018-04-14T18:12:25.448Z,22.20
2018-04-14T18:14:52.952Z,19.53
2018-04-14T18:17:20.517Z,15.07
2018-04-14T18:19:48.051Z,16.63
2018-04-14T18:22:15.576Z,12.97
2018-04-14T18:24:43.129Z,16.90
2018-04-14T18:27:10.624Z,15.20
2018-04-14T18:29:38.176Z,11.43
2018-04-14T18:32:05.725Z,16.20
2018-04-14T18:34:33.230Z,13.17
2018-04-14T18:37:00.790Z,12.37
2018-04-14T18:39:28.358Z,13.27
2018-04-14T18:41:56.741Z,14.10
2018-04-14T18:44:23.553Z,14.17
2018-04-14T18:46:51.097Z,13.00
2018-04-14T18:49:18.607Z,14.40
2018-04-14T18:51:46.168Z,13.63
2018-04-14T18:54:13.876Z,11.27
2018-04-14T18:56:41.375Z,11.13
2018-04-14T18:59:09.815Z,13.57
2018-04-14T19:01:37.369Z,13.63
2018-04-14T19:04:04.926Z,15.53
2018-04-14T19:06:32.440Z,14.57
2018-04-14T19:09:00.043Z,16.40
2018-04-14T19:11:27.543Z,13.17
2018-04-14T19:13:55.047Z,13.53
2018-04-14T19:16:22.577Z,23.97
2018-04-14T19:18:50.083Z,20.93
2018-04-14T19:21:17.641Z,13.33
2018-04-14T19:23:45.148Z,12.33
2018-04-14T19:26:12.708Z,12.07
2018-04-14T19:28:40.218Z,15.30
2018-04-14T19:31:07.727Z,15.90
2018-04-14T19:33:35.238Z,18.57
2018-04-14T19:36:02.757Z,14.47
2018-04-14T19:38:30.270Z,18.87
2018-04-14T19:40:57.783Z,17.20
2018-04-14T19:43:25.294Z,17.93
2018-04-14T19:45:52.852Z,16.87
2018-04-14T19:48:20.370Z,14.67
2018-04-14T19:50:47.935Z,17.53
2018-04-14T19:53:15.510Z,12.30
2018-04-14T19:55:43.033Z,15.67
2018-04-14T19:58:10.538Z,15.40
2018-04-14T20:00:38.088Z,17.47
2018-04-14T20:03:05.596Z,16.23
2018-04-14T20:05:33.150Z,15.10
2018-04-14T20:08:00.655Z,14.47
2018-04-14T20:10:28.213Z,13.40
2018-04-14T20:12:55.720Z,18.30
2018-04-14T20:15:23.235Z,15.47
2018-04-14T20:17:50.798Z,14.17
2018-04-14T20:20:18.313Z,14.43
2018-04-14T20:22:45.961Z,16.23
2018-04-14T20:25:13.525Z,14.70
2018-04-14T20:27:41.007Z,17.60
2018-04-14T20:30:08.565Z,13.83
2018-04-14T20:32:36.149Z,13.07
2018-04-14T20:35:03.695Z,17.83
2018-04-14T20:37:31.266Z,15.03
2018-04-14T20:39:58.788Z,15.73
2018-04-14T20:42:26.291Z,17.33
2018-04-14T20:44:53.798Z,15.67
2018-04-14T20:47:21.317Z,15.37
2018-04-14T20:49:48.876Z,13.43
2018-04-14T20:52:16.424Z,14.47
2018-04-14T20:54:43.938Z,20.13
2018-04-14T20:57:11.451Z,16.00
2018-04-14T20:59:39.013Z,18.40
2018-04-14T21:02:06.524Z,18.93
2018-04-14T21:04:34.089Z,16.77
2018-04-14T21:07:01.606Z,16.53
2018-04-14T21:09:29.112Z,15.83
2018-04-14T21:11:56.622Z,14.27
2018-04-14T21:14:24.776Z,15.03
2018-04-14T21:16:52.324Z,17.97
2018-04-14T21:19:19.834Z,16.30
2018-04-14T21:21:47.345Z,13.63
2018-04-14T21:24:14.873Z,14.77
2018-04-14T21:26:42.508Z,14.03
2018-04-14T21:29:10.032Z,15.07
2018-04-14T21:31:37.608Z,15.53
2018-04-14T21:34:05.170Z,14.00
2018-04-14T21:36:32.775Z,13.63
2018-04-14T21:39:00.317Z,15.67
2018-04-14T21:41:27.872Z,15.93
2018-04-14T21:43:55.427Z,13.57
2018-04-14T21:46:23.048Z,14.50
2018-04-14T21:48:50.624Z,14.37
2018-04-14T21:51:18.280Z,15.20
2018-04-14T21:53:45.901Z,14.50
2018-04-14T21:56:13.441Z,15.97
2018-04-14T21:58:41.027Z,14.23
2018-04-14T22:01:08.617Z,14.67
2018-04-14T22:03:36.201Z,16.47
2018-04-14T22:06:03.749Z,14.77
2018-04-14T22:08:31.333Z,17.97
2018-04-14T22:10:58.872Z,12.93
2018-04-14T22:13:26.469Z,14.27
2018-04-14T22:15:54.061Z,14.43
2018-04-14T22:18:21.658Z,15.40
2018-04-14T22:20:49.208Z,13.93
2018-04-14T22:23:16.789Z,14.17
2018-04-14T22:25:44.329Z,13.40
2018-04-14T22:28:11.880Z,14.17
2018-04-14T22:30:39.430Z,15.73
2018-04-14T22:33:07.013Z,15.70
2018-04-14T22:35:34.614Z,15.93
2018-04-14T22:38:02.161Z,13.17
2018-04-14T22:40:29.701Z,13.37
2018-04-14T22:42:57.248Z,13.30
2018-04-14T22:45:24.787Z,12.47
2018-04-14T22:47:52.333Z,14.77
2018-04-14T22:50:19.881Z,14.27
2018-04-14T22:52:47.420Z,12.80
2018-04-14T22:55:15.017Z,12.90
2018-04-14T22:57:42.586Z,12.90
2018-04-14T23:00:10.193Z,14.60
2018-04-14T23:02:37.785Z,15.53
2018-04-14T23:05:05.329Z,14.33
2018-04-14T23:07:32.913Z,14.47
2018-04-14T23:10:00.469Z,12.40
2018-04-14T23:12:28.013Z,11.87
2018-04-14T23:14:55.561Z,14.83
2018-04-14T23:17:23.152Z,16.00
2018-04-14T23:19:50.706Z,14.20
2018-04-14T23:22:18.252Z,13.17
2018-04-14T23:24:45.809Z,14.63
2018-04-14T23:27:13.406Z,12.87
2018-04-14T23:29:40.965Z,14.20
2018-04-14T23:32:08.557Z,13.97
2018-04-14T23:34:36.104Z,13.03
2018-04-14T23:37:03.683Z,13.47
2018-04-14T23:39:31.230Z,13.20
2018-04-14T23:41:58.767Z,14.03
2018-04-14T23:44:26.366Z,30.63
2018-04-14T23:46:53.920Z,37.90
2018-04-14T23:49:21.478Z,30.93
2018-04-14T23:51:49.056Z,22.23
2018-04-14T23:54:16.628Z,18.27
2018-04-14T23:56:44.212Z,15.70
2018-04-14T23:59:11.765Z,15.87
